createdAt,value
2018-02-17T00:00:06.840Z,-3.05
2018-02-17T00:01:16.836Z,-3.08
2018-02-17T00:02:26.842Z,-3.09
2018-02-17T00:03:36.832Z,-3.09
2018-02-17T00:04:46.828Z,-3.11
2018-02-17T00:05:56.819Z,-3.14
2018-02-17T00:07:06.813Z,-3.2
2018-02-17T00:08:16.808Z,-3.11
2018-02-17T00:09:26.536Z,-3.11
2018-02-17T00:10:36.259Z,-3.09
2018-02-17T00:11:45.987Z,-3.12
2018-02-17T00:12:55.981Z,-3.15
2018-02-17T00:14:05.972Z,-3.09
2018-02-17T00:15:15.703Z,-3.11
2018-02-17T00:16:25.697Z,-3.11
2018-02-17T00:17:35.746Z,-3.12
2018-02-17T00:18:45.753Z,-3.11
2018-02-17T00:19:55.746Z,-3.07
2018-02-17T00:21:05.741Z,-3.11
2018-02-17T00:22:15.734Z,-3.14
2018-02-17T00:23:25.461Z,-3.14
2018-02-17T00:24:34.919Z,-3.2
2018-02-17T00:25:44.912Z,-3.17
2018-02-17T00:26:54.897Z,-3.19
2018-02-17T00:28:04.620Z,-3.27
2018-02-17T00:29:14.612Z,-3.29
2018-02-17T00:30:24.072Z,-3.22
2018-02-17T00:31:33.800Z,-3.17
2018-02-17T00:32:43.260Z,-3.12
2018-02-17T00:33:53.254Z,-3.09
2018-02-17T00:35:03.244Z,-3.2
2018-02-17T00:36:12.976Z,-3.17
2018-02-17T00:37:23.068Z,-3.15
2018-02-17T00:38:33.060Z,-3.09
2018-02-17T00:39:42.784Z,-3.07
2018-02-17T00:40:52.785Z,-3.14
2018-02-17T00:42:02.777Z,-3.08
2018-02-17T00:43:12.783Z,-3.14
2018-02-17T00:44:22.783Z,-3.04
2018-02-17T00:45:32.510Z,-3.01
2018-02-17T00:46:42.504Z,-3.05
2018-02-17T00:47:52.497Z,-3.01
2018-02-17T00:49:01.956Z,-3.04
2018-02-17T00:50:11.948Z,-3.01
2018-02-17T00:51:21.671Z,-3.01
2018-02-17T00:52:31.668Z,-3.02
2018-02-17T00:53:41.661Z,-3.02
2018-02-17T00:54:51.653Z,-2.91
2018-02-17T00:56:01.651Z,-2.91
2018-02-17T00:57:11.378Z,-2.89
2018-02-17T00:58:21.105Z,-2.94
2018-02-17T00:59:31.095Z,-2.89
2018-02-17T01:00:41.192Z,-2.9
2018-02-17T01:01:51.186Z,-2.93
2018-02-17T01:03:01.175Z,-2.98
2018-02-17T01:04:11.167Z,-2.93
2018-02-17T01:05:20.898Z,-2.96
2018-02-17T01:06:30.885Z,-2.99
2018-02-17T01:07:40.611Z,-2.99
2018-02-17T01:08:50.337Z,-2.89
2018-02-17T01:10:00.329Z,-3.02
2018-02-17T01:11:10.329Z,-2.99
2018-02-17T01:12:20.325Z,-2.96
2018-02-17T01:13:30.051Z,-2.96
2018-02-17T01:14:40.113Z,-3.09
2018-02-17T01:15:50.107Z,-3.09
2018-02-17T01:17:00.099Z,-3.11
2018-02-17T01:18:10.108Z,-2.99
2018-02-17T01:19:20.105Z,-3.05
2018-02-17T01:20:30.111Z,-2.98
2018-02-17T01:21:40.105Z,-3.14
2018-02-17T01:22:50.099Z,-3.14
2018-02-17T01:24:00.090Z,-3.09
2018-02-17T01:25:10.087Z,-3.04
2018-02-17T01:26:19.808Z,-3.12
2018-02-17T01:27:29.802Z,-3.04
2018-02-17T01:28:39.795Z,-3.08
2018-02-17T01:29:49.787Z,-3.11
2018-02-17T01:30:59.781Z,-2.99
2018-02-17T01:32:09.772Z,-3.07
2018-02-17T01:33:19.498Z,-3.04
2018-02-17T01:34:28.693Z,-3.04
2018-02-17T01:35:38.698Z,-3.11
2018-02-17T01:36:48.692Z,-3.07
2018-02-17T01:37:58.683Z,-3.12
2018-02-17T01:39:08.681Z,-3.14
2018-02-17T01:40:18.677Z,-3.07
2018-02-17T01:41:28.404Z,-3.07
2018-02-17T01:42:38.129Z,-3.11
2018-02-17T01:43:47.855Z,-3.2
2018-02-17T01:44:57.589Z,-3.19
2018-02-17T01:46:07.588Z,-3.14
2018-02-17T01:47:17.315Z,-3.2
2018-02-17T01:48:27.308Z,-3.17
2018-02-17T01:49:37.293Z,-3.27
2018-02-17T01:50:47.293Z,-3.22
2018-02-17T01:51:57.281Z,-3.23
2018-02-17T01:53:07.372Z,-3.25
2018-02-17T01:54:17.099Z,-3.29
2018-02-17T01:55:26.825Z,-3.36
2018-02-17T01:56:36.824Z,-3.4
2018-02-17T01:57:46.815Z,-3.33
2018-02-17T01:58:56.803Z,-3.44
2018-02-17T02:00:06.257Z,-3.5
2018-02-17T02:01:15.726Z,-3.58
2018-02-17T02:02:25.720Z,-3.59
2018-02-17T02:03:35.720Z,-3.66
2018-02-17T02:04:45.713Z,-3.71
2018-02-17T02:05:55.439Z,-3.74
2018-02-17T02:07:05.162Z,-3.71
2018-02-17T02:08:15.154Z,-3.81
2018-02-17T02:09:25.151Z,-3.75
2018-02-17T02:10:35.141Z,-3.8
2018-02-17T02:11:45.131Z,-3.74
2018-02-17T02:12:55.124Z,-3.68
2018-02-17T02:14:04.847Z,-3.66
2018-02-17T02:15:14.848Z,-3.69
2018-02-17T02:16:24.629Z,-3.71
2018-02-17T02:17:34.624Z,-3.71
2018-02-17T02:18:44.620Z,-3.75
2018-02-17T02:19:54.348Z,-3.8
2018-02-17T02:21:04.344Z,-3.8
2018-02-17T02:22:14.335Z,-3.74
2018-02-17T02:23:24.056Z,-3.69
2018-02-17T02:24:33.785Z,-3.66
2018-02-17T02:25:43.772Z,-3.74
2018-02-17T02:26:53.766Z,-3.68
2018-02-17T02:28:03.759Z,-3.69
2018-02-17T02:29:13.751Z,-3.69
2018-02-17T02:30:23.745Z,-3.66
2018-02-17T02:31:33.476Z,-3.69
2018-02-17T02:32:43.212Z,-3.75
2018-02-17T02:33:53.199Z,-3.84
2018-02-17T02:35:03.193Z,-3.84
2018-02-17T02:36:12.651Z,-3.85
2018-02-17T02:37:22.660Z,-3.8
2018-02-17T02:38:32.657Z,-3.91
2018-02-17T02:39:42.387Z,-3.91
2018-02-17T02:40:52.395Z,-3.91
2018-02-17T02:42:02.394Z,-3.88
2018-02-17T02:43:12.389Z,-3.85
2018-02-17T02:44:21.874Z,-3.83
2018-02-17T02:45:31.114Z,-3.85
2018-02-17T02:46:41.104Z,-3.81
2018-02-17T02:47:51.127Z,-3.96
2018-02-17T02:49:01.130Z,-3.95
2018-02-17T02:50:10.866Z,-4.08
2018-02-17T02:51:20.325Z,-4.14
2018-02-17T02:52:30.044Z,-4.2
2018-02-17T02:53:40.042Z,-4.27
2018-02-17T02:54:50.035Z,-4.4
2018-02-17T02:55:59.503Z,-4.42
2018-02-17T02:57:09.229Z,-4.51
2018-02-17T02:58:18.959Z,-4.58
2018-02-17T02:59:28.947Z,-4.55
2018-02-17T03:00:38.676Z,-4.55
2018-02-17T03:01:48.673Z,-4.53
2018-02-17T03:02:58.666Z,-4.52
2018-02-17T03:04:08.121Z,-4.58
2018-02-17T03:05:17.849Z,-4.56
2018-02-17T03:06:27.849Z,-4.58
2018-02-17T03:07:37.837Z,-4.52
2018-02-17T03:08:47.825Z,-4.58
2018-02-17T03:09:57.820Z,-4.53
2018-02-17T03:11:07.808Z,-4.56
2018-02-17T03:12:17.536Z,-4.55
2018-02-17T03:13:27.532Z,-4.62
2018-02-17T03:14:37.534Z,-4.73
2018-02-17T03:15:47.523Z,-4.8
2018-02-17T03:16:57.257Z,-4.77
2018-02-17T03:18:06.717Z,-4.8
2018-02-17T03:19:16.439Z,-4.83
2018-02-17T03:20:26.429Z,-4.83
2018-02-17T03:21:36.418Z,-4.88
2018-02-17T03:22:46.406Z,-4.87
2018-02-17T03:23:56.394Z,-4.83
2018-02-17T03:25:06.122Z,-4.76
2018-02-17T03:26:16.159Z,-4.88
2018-02-17T03:27:26.154Z,-4.79
2018-02-17T03:28:36.144Z,-4.7
2018-02-17T03:29:46.147Z,-4.67
2018-02-17T03:30:56.139Z,-4.63
2018-02-17T03:32:06.135Z,-4.62
2018-02-17T03:33:15.587Z,-4.63
2018-02-17T03:34:25.580Z,-4.58
2018-02-17T03:35:35.566Z,-4.55
2018-02-17T03:36:45.556Z,-4.56
2018-02-17T03:37:55.282Z,-4.49
2018-02-17T03:39:05.003Z,-4.42
2018-02-17T03:40:14.984Z,-4.38
2018-02-17T03:41:24.975Z,-4.38
2018-02-17T03:42:34.697Z,-4.41
2018-02-17T03:43:44.687Z,-4.37
2018-02-17T03:44:54.412Z,-4.27
2018-02-17T03:46:04.135Z,-4.33
2018-02-17T03:47:13.590Z,-4.26
2018-02-17T03:48:23.580Z,-4.33
2018-02-17T03:49:33.037Z,-4.3
2018-02-17T03:50:42.765Z,-4.34
2018-02-17T03:51:52.759Z,-4.27
2018-02-17T03:53:02.754Z,-4.4
2018-02-17T03:54:12.477Z,-4.4
2018-02-17T03:55:22.198Z,-4.51
2018-02-17T03:56:31.918Z,-4.53
2018-02-17T03:57:41.920Z,-4.56
2018-02-17T03:58:51.904Z,-4.58
2018-02-17T04:00:01.898Z,-4.59
2018-02-17T04:03:43.933Z,-4.65
2018-02-17T04:04:53.388Z,-4.63
2018-02-17T04:06:03.111Z,-4.61
2018-02-17T04:07:12.839Z,-4.49
2018-02-17T04:08:22.829Z,-4.59
2018-02-17T04:09:32.555Z,-4.69
2018-02-17T04:10:42.546Z,-4.73
2018-02-17T04:11:52.550Z,-4.7
2018-02-17T04:13:02.541Z,-4.67
2018-02-17T04:14:11.737Z,-4.8
2018-02-17T04:15:21.195Z,-4.74
2018-02-17T04:16:30.920Z,-4.63
2018-02-17T04:17:40.650Z,-4.59
2018-02-17T04:18:50.728Z,-4.55
2018-02-17T04:20:00.713Z,-4.59
2018-02-17T04:21:10.165Z,-4.49
2018-02-17T04:22:20.152Z,-4.44
2018-02-17T04:23:29.884Z,-4.4
2018-02-17T04:24:39.609Z,-4.41
2018-02-17T04:25:49.332Z,-4.3
2018-02-17T04:26:59.057Z,-4.26
2018-02-17T04:28:09.053Z,-4.31
2018-02-17T04:29:19.043Z,-4.3
2018-02-17T04:30:29.026Z,-4.2
2018-02-17T04:31:38.745Z,-4.24
2018-02-17T04:32:48.730Z,-4.31
2018-02-17T04:33:58.456Z,-4.27
2018-02-17T04:35:08.180Z,-4.3
2018-02-17T04:36:18.158Z,-4.3
2018-02-17T04:37:28.150Z,-4.35
2018-02-17T04:38:37.875Z,-4.41
2018-02-17T04:39:47.327Z,-4.42
2018-02-17T04:40:57.313Z,-4.38
2018-02-17T04:42:07.038Z,-4.49
2018-02-17T04:43:16.759Z,-4.55
2018-02-17T04:44:26.475Z,-4.56
2018-02-17T04:45:36.462Z,-4.63
2018-02-17T04:46:46.178Z,-4.71
2018-02-17T04:47:56.172Z,-4.76
2018-02-17T04:49:05.629Z,-4.77
2018-02-17T04:50:15.350Z,-4.9
2018-02-17T04:51:25.334Z,-4.8
2018-02-17T04:52:35.321Z,-4.76
2018-02-17T04:53:45.308Z,-4.74
2018-02-17T04:54:55.293Z,-4.65
2018-02-17T04:56:05.384Z,-4.67
2018-02-17T04:57:14.835Z,-4.79
2018-02-17T04:58:24.822Z,-4.79
2018-02-17T04:59:34.540Z,-4.79
2018-02-17T05:00:44.532Z,-4.84
2018-02-17T05:01:54.519Z,-4.8
2018-02-17T05:03:04.232Z,-4.8
2018-02-17T05:04:13.156Z,-4.8
2018-02-17T05:05:23.138Z,-4.79
2018-02-17T05:06:33.129Z,-4.8
2018-02-17T05:07:43.166Z,-4.88
2018-02-17T05:08:53.145Z,-4.84
2018-02-17T05:10:02.868Z,-4.76
2018-02-17T05:11:12.858Z,-4.88
2018-02-17T05:12:22.842Z,-4.74
2018-02-17T05:13:32.825Z,-4.83
2018-02-17T05:14:42.546Z,-4.84
2018-02-17T05:15:52.542Z,-4.77
2018-02-17T05:17:02.536Z,-4.8
2018-02-17T05:18:12.529Z,-4.77
2018-02-17T05:19:22.289Z,-4.77
2018-02-17T05:20:32.008Z,-4.71
2018-02-17T05:21:41.995Z,-4.73
2018-02-17T05:22:51.977Z,-4.77
2018-02-17T05:24:01.964Z,-4.76
2018-02-17T05:25:11.522Z,-4.74
2018-02-17T05:26:21.240Z,-4.74
2018-02-17T05:27:31.281Z,-4.63
2018-02-17T05:28:41.027Z,-4.62
2018-02-17T05:29:51.058Z,-4.67
2018-02-17T05:31:01.042Z,-4.62
2018-02-17T05:32:11.032Z,-4.65
2018-02-17T05:33:20.752Z,-4.77
2018-02-17T05:34:30.741Z,-4.63
2018-02-17T05:35:40.736Z,-4.61
2018-02-17T05:36:50.722Z,-4.61
2018-02-17T05:38:00.710Z,-4.59
2018-02-17T05:39:10.434Z,-4.56
2018-02-17T05:40:20.154Z,-4.53
2018-02-17T05:41:30.132Z,-4.56
2018-02-17T05:42:40.125Z,-4.59
2018-02-17T05:43:50.111Z,-4.53
2018-02-17T05:44:59.837Z,-4.55
2018-02-17T05:46:09.823Z,-4.62
2018-02-17T05:47:19.813Z,-4.55
2018-02-17T05:48:30.108Z,-4.59
2018-02-17T05:49:40.097Z,-4.58
2018-02-17T05:50:50.086Z,-4.52
2018-02-17T05:52:00.085Z,-4.47
2018-02-17T05:53:09.810Z,-4.42
2018-02-17T05:54:19.796Z,-4.41
2018-02-17T05:55:29.782Z,-4.49
2018-02-17T05:56:39.770Z,-4.44
2018-02-17T05:57:49.761Z,-4.34
2018-02-17T05:58:59.751Z,-4.33
2018-02-17T06:00:09.205Z,-4.3
2018-02-17T06:01:18.662Z,-4.31
2018-02-17T06:02:28.387Z,-4.3
2018-02-17T06:03:38.377Z,-4.26
2018-02-17T06:04:48.370Z,-4.22
2018-02-17T06:05:58.361Z,-4.26
2018-02-17T06:07:07.814Z,-4.16
2018-02-17T06:08:17.808Z,-4.14
2018-02-17T06:09:27.529Z,-4.2
2018-02-17T06:10:37.551Z,-4.16
2018-02-17T06:11:47.539Z,-4.13
2018-02-17T06:12:57.524Z,-4.17
2018-02-17T06:14:07.519Z,-4.14
2018-02-17T06:15:17.503Z,-4.06
2018-02-17T06:16:27.499Z,-4.05
2018-02-17T06:17:37.486Z,-4.02
2018-02-17T06:18:47.480Z,-4.02
2018-02-17T06:19:57.473Z,-4.02
2018-02-17T06:21:07.464Z,-3.99
2018-02-17T06:22:17.196Z,-3.94
2018-02-17T06:23:27.232Z,-3.91
2018-02-17T06:24:37.219Z,-3.88
2018-02-17T06:25:47.204Z,-3.94
2018-02-17T06:26:56.657Z,-3.94
2018-02-17T06:28:06.641Z,-4.02
2018-02-17T06:29:16.631Z,-3.94
2018-02-17T06:30:26.354Z,-4.06
2018-02-17T06:31:35.805Z,-3.99
2018-02-17T06:32:45.531Z,-3.91
2018-02-17T06:33:55.252Z,-4.01
2018-02-17T06:35:04.977Z,-3.99
2018-02-17T06:36:14.973Z,-3.83
2018-02-17T06:37:24.970Z,-3.95
2018-02-17T06:38:34.955Z,-3.9
2018-02-17T06:39:44.940Z,-3.9
2018-02-17T06:40:54.711Z,-3.9
2018-02-17T06:42:04.432Z,-4.02
2018-02-17T06:43:14.152Z,-4.02
2018-02-17T06:44:24.140Z,-3.96
2018-02-17T06:45:34.139Z,-4.06
2018-02-17T06:46:43.858Z,-3.99
2018-02-17T06:47:53.844Z,-4.02
2018-02-17T06:49:03.564Z,-4.04
2018-02-17T06:50:13.286Z,-4.02
2018-02-17T06:51:23.276Z,-4.02
2018-02-17T06:52:33.001Z,-4.09
2018-02-17T06:53:42.995Z,-4.17
2018-02-17T06:54:52.759Z,-4.17
2018-02-17T06:56:02.482Z,-4.19
2018-02-17T06:57:12.520Z,-4.16
2018-02-17T06:58:22.246Z,-4.19
2018-02-17T06:59:32.237Z,-4.23
2018-02-17T07:00:41.956Z,-4.14
2018-02-17T07:01:51.951Z,-4.13
2018-02-17T07:03:01.951Z,-4.23
2018-02-17T07:04:11.945Z,-4.26
2018-02-17T07:05:21.662Z,-4.24
2018-02-17T07:06:31.648Z,-4.31
2018-02-17T07:07:41.376Z,-4.3
2018-02-17T07:08:51.361Z,-4.27
2018-02-17T07:10:01.130Z,-4.31
2018-02-17T07:11:11.132Z,-4.31
2018-02-17T07:12:21.129Z,-4.26
2018-02-17T07:13:30.585Z,-4.23
2018-02-17T07:14:40.306Z,-4.3
2018-02-17T07:15:50.296Z,-4.33
2018-02-17T07:17:00.018Z,-4.22
2018-02-17T07:18:10.010Z,-4.31
2018-02-17T07:19:19.738Z,-4.3
2018-02-17T07:20:29.578Z,-4.33
2018-02-17T07:21:39.310Z,-4.35
2018-02-17T07:22:49.302Z,-4.2
2018-02-17T07:23:59.290Z,-4.24
2018-02-17T07:25:09.287Z,-4.23
2018-02-17T07:26:19.010Z,-4.14
2018-02-17T07:27:29.106Z,-4.14
2018-02-17T07:28:38.830Z,-4.14
2018-02-17T07:29:48.820Z,-4.17
2018-02-17T07:30:58.818Z,-4.14
2018-02-17T07:32:08.539Z,-4.14
2018-02-17T07:33:18.632Z,-4.17
2018-02-17T07:34:28.617Z,-4.09
2018-02-17T07:35:38.601Z,-4.19
2018-02-17T07:36:48.319Z,-4.06
2018-02-17T07:37:58.320Z,-4.05
2018-02-17T07:39:08.309Z,-4.02
2018-02-17T07:40:18.330Z,-4.06
2018-02-17T07:41:28.391Z,-4.01
2018-02-17T07:42:38.113Z,-3.98
2018-02-17T07:43:47.571Z,-3.94
2018-02-17T07:44:57.296Z,-3.99
2018-02-17T07:46:06.751Z,-4.02
2018-02-17T07:47:16.206Z,-4.02
2018-02-17T07:48:26.195Z,-3.85
2018-02-17T07:49:36.189Z,-3.99
2018-02-17T07:50:46.281Z,-3.84
2018-02-17T07:51:56.001Z,-3.87
2018-02-17T07:53:05.993Z,-3.94
2018-02-17T07:54:15.989Z,-3.78
2018-02-17T07:55:26.026Z,-3.83
2018-02-17T07:56:36.019Z,-3.75
2018-02-17T07:57:45.747Z,-3.74
2018-02-17T07:58:55.477Z,-3.71
2018-02-17T08:00:05.316Z,-3.71
2018-02-17T08:01:15.041Z,-3.75
2018-02-17T08:02:24.815Z,-3.68
2018-02-17T08:03:34.814Z,-3.66
2018-02-17T08:04:44.811Z,-3.71
2018-02-17T08:05:54.806Z,-3.74
2018-02-17T08:07:04.568Z,-3.53
2018-02-17T08:08:14.569Z,-3.62
2018-02-17T08:09:24.291Z,-3.58
2018-02-17T08:10:34.287Z,-3.58
2018-02-17T08:11:44.317Z,-3.58
2018-02-17T08:12:54.309Z,-3.58
2018-02-17T08:14:04.306Z,-3.48
2018-02-17T08:15:14.292Z,-3.48
2018-02-17T08:16:24.016Z,-3.44
2018-02-17T08:17:34.009Z,-3.56
2018-02-17T08:18:43.464Z,-3.55
2018-02-17T08:19:53.760Z,-3.59
2018-02-17T08:21:03.760Z,-3.55
2018-02-17T08:22:13.484Z,-3.53
2018-02-17T08:23:22.942Z,-3.64
2018-02-17T08:24:32.991Z,-3.64
2018-02-17T08:25:43.112Z,-3.69
2018-02-17T08:26:53.100Z,-3.59
2018-02-17T08:28:02.822Z,-3.58
2018-02-17T08:29:12.814Z,-3.58
2018-02-17T08:30:22.807Z,-3.55
2018-02-17T08:31:32.791Z,-3.62
2018-02-17T08:32:42.524Z,-3.56
2018-02-17T08:33:52.529Z,-3.5
2018-02-17T08:35:02.541Z,-3.59
2018-02-17T08:36:12.537Z,-3.58
2018-02-17T08:37:22.270Z,-3.44
2018-02-17T08:38:32.256Z,-3.46
2018-02-17T08:39:42.259Z,-3.44
2018-02-17T08:40:52.257Z,-3.38
2018-02-17T08:42:02.256Z,-3.27
2018-02-17T08:43:11.713Z,-3.25
2018-02-17T08:44:21.443Z,-3.26
2018-02-17T08:45:31.517Z,-3.3
2018-02-17T08:46:40.704Z,-3.3
2018-02-17T08:47:50.693Z,-3.41
2018-02-17T08:49:00.685Z,-3.41
2018-02-17T08:50:10.408Z,-3.4
2018-02-17T08:51:20.401Z,-3.36
2018-02-17T08:52:30.401Z,-3.38
2018-02-17T08:53:40.392Z,-3.38
2018-02-17T08:54:50.120Z,-3.38
2018-02-17T08:55:59.838Z,-3.37
2018-02-17T08:57:09.298Z,-3.26
2018-02-17T08:58:19.027Z,-3.33
2018-02-17T08:59:28.755Z,-3.44
2018-02-17T09:00:38.526Z,-3.4
2018-02-17T09:01:48.551Z,-3.4
2018-02-17T09:02:58.541Z,-3.26
2018-02-17T09:04:07.996Z,-3.19
2018-02-17T09:05:17.750Z,-3.2
2018-02-17T09:06:27.478Z,-3.25
2018-02-17T09:07:37.214Z,-3.23
2018-02-17T09:08:47.213Z,-3.09
2018-02-17T09:09:56.938Z,-3.09
2018-02-17T09:11:06.934Z,-3.05
2018-02-17T09:12:16.668Z,-3.02
2018-02-17T09:13:26.660Z,-2.96
2018-02-17T09:14:36.651Z,-2.89
2018-02-17T09:15:46.646Z,-2.89
2018-02-17T09:16:56.644Z,-2.86
2018-02-17T09:18:06.370Z,-2.81
2018-02-17T09:19:16.095Z,-2.93
2018-02-17T09:20:26.099Z,-2.78
2018-02-17T09:21:36.091Z,-2.73
2018-02-17T09:22:45.845Z,-2.66
2018-02-17T09:23:55.720Z,-2.58
2018-02-17T09:25:05.725Z,-2.65
2018-02-17T09:26:15.457Z,-2.58
2018-02-17T09:27:25.448Z,-2.54
2018-02-17T09:28:35.491Z,-2.51
2018-02-17T09:29:45.488Z,-2.55
2018-02-17T09:30:55.476Z,-2.4
2018-02-17T09:32:05.195Z,-2.5
2018-02-17T09:33:15.192Z,-2.48
2018-02-17T09:34:24.919Z,-2.48
2018-02-17T09:35:34.911Z,-2.51
2018-02-17T09:36:44.908Z,-2.44
2018-02-17T09:37:54.897Z,-2.42
2018-02-17T09:39:04.625Z,-2.48
2018-02-17T09:40:14.082Z,-2.36
2018-02-17T09:41:23.805Z,-2.32
2018-02-17T09:42:33.795Z,-2.39
2018-02-17T09:43:43.790Z,-2.23
2018-02-17T09:44:53.783Z,-2.37
2018-02-17T09:46:03.273Z,-2.26
2018-02-17T09:47:13.347Z,-2.36
2018-02-17T09:48:23.342Z,-2.26
2018-02-17T09:49:33.328Z,-2.33
2018-02-17T09:50:43.323Z,-2.33
2018-02-17T09:51:53.321Z,-2.32
2018-02-17T09:53:03.312Z,-2.33
2018-02-17T09:54:13.302Z,-2.33
2018-02-17T09:55:23.304Z,-2.34
2018-02-17T09:56:33.291Z,-2.4
2018-02-17T09:57:43.307Z,-2.5
2018-02-17T09:58:53.074Z,-2.55
2018-02-17T10:00:02.537Z,-2.5
2018-02-17T10:01:12.272Z,-2.51
2018-02-17T10:02:22.083Z,-2.58
2018-02-17T10:03:32.082Z,-2.52
2018-02-17T10:04:42.092Z,-2.61
2018-02-17T10:05:52.087Z,-2.51
2018-02-17T10:07:01.558Z,-2.52
2018-02-17T10:08:11.554Z,-2.58
2018-02-17T10:09:21.283Z,-2.63
2018-02-17T10:10:31.383Z,-2.68
2018-02-17T10:11:41.375Z,-2.62
2018-02-17T10:12:51.365Z,-2.62
2018-02-17T10:14:01.093Z,-2.66
2018-02-17T10:15:10.820Z,-2.65
2018-02-17T10:16:20.545Z,-2.65
2018-02-17T10:17:30.001Z,-2.58
2018-02-17T10:18:39.999Z,-2.54
2018-02-17T10:19:49.507Z,-2.55
2018-02-17T10:20:59.236Z,-2.47
2018-02-17T10:22:09.232Z,-2.44
2018-02-17T10:23:18.710Z,-2.5
2018-02-17T10:24:28.754Z,-2.45
2018-02-17T10:25:38.759Z,-2.52
2018-02-17T10:26:48.484Z,-2.58
2018-02-17T10:27:58.581Z,-2.55
2018-02-17T10:29:08.042Z,-2.61
2018-02-17T10:30:17.772Z,-2.47
2018-02-17T10:31:27.497Z,-2.47
2018-02-17T10:32:37.503Z,-2.39
2018-02-17T10:33:46.965Z,-2.32
2018-02-17T10:34:56.967Z,-2.33
2018-02-17T10:36:06.969Z,-2.34
2018-02-17T10:37:16.705Z,-2.36
2018-02-17T10:38:26.696Z,-2.33
2018-02-17T10:39:36.694Z,-2.34
2018-02-17T10:40:46.695Z,-2.33
2018-02-17T10:41:56.687Z,-2.32
2018-02-17T10:43:06.679Z,-2.36
2018-02-17T10:44:16.675Z,-2.37
2018-02-17T10:45:26.675Z,-2.37
2018-02-17T10:46:36.668Z,-2.48
2018-02-17T10:47:46.399Z,-2.5
2018-02-17T10:48:56.396Z,-2.51
2018-02-17T10:50:06.122Z,-2.52
2018-02-17T10:51:16.172Z,-2.57
2018-02-17T10:52:26.181Z,-2.51
2018-02-17T10:53:36.169Z,-2.36
2018-02-17T10:54:45.369Z,-2.33
2018-02-17T10:55:55.386Z,-2.23
2018-02-17T10:57:05.441Z,-2.4
2018-02-17T10:58:15.432Z,-2.4
2018-02-17T10:59:25.164Z,-2.4
2018-02-17T11:00:34.888Z,-2.34
2018-02-17T11:01:44.761Z,-2.28
2018-02-17T11:02:54.765Z,-2.28
2018-02-17T11:04:04.766Z,-2.2
2018-02-17T11:05:14.491Z,-2.15
2018-02-17T11:06:24.494Z,-2.2
2018-02-17T11:07:34.492Z,-2.39
2018-02-17T11:08:44.219Z,-2.25
2018-02-17T11:09:54.216Z,-2.25
2018-02-17T11:11:03.680Z,-2.28
2018-02-17T11:12:13.707Z,-2.34
2018-02-17T11:13:23.775Z,-2.28
2018-02-17T11:14:33.242Z,-2.32
2018-02-17T11:15:43.238Z,-2.28
2018-02-17T11:16:52.966Z,-2.17
2018-02-17T11:18:02.694Z,-2.18
2018-02-17T11:19:12.150Z,-2.04
2018-02-17T11:20:22.145Z,-2.02
2018-02-17T11:21:31.875Z,-2.04
2018-02-17T11:22:41.874Z,-2
2018-02-17T11:23:51.681Z,-2.04
2018-02-17T11:25:01.688Z,-1.94
2018-02-17T11:26:11.682Z,-2.15
2018-02-17T11:27:21.745Z,-2.22
2018-02-17T11:28:31.510Z,-2.25
2018-02-17T11:29:41.507Z,-2.23
2018-02-17T11:30:51.236Z,-2.18
2018-02-17T11:32:01.234Z,-2.07
2018-02-17T11:33:10.692Z,-2.02
2018-02-17T11:34:20.422Z,-1.94
2018-02-17T11:35:30.186Z,-1.79
2018-02-17T11:36:40.251Z,-1.66
2018-02-17T11:37:50.277Z,-1.58
2018-02-17T11:39:00.276Z,-1.53
2018-02-17T11:40:09.473Z,-1.43
2018-02-17T11:41:19.467Z,-1.3
2018-02-17T11:42:29.458Z,-1.21
2018-02-17T11:43:39.182Z,-0.99
2018-02-17T11:44:49.182Z,-0.97
2018-02-17T11:45:59.173Z,-0.93
2018-02-17T11:47:08.634Z,-0.72
2018-02-17T11:48:18.098Z,-0.62
2018-02-17T11:49:28.102Z,-0.53
2018-02-17T11:50:37.295Z,-0.59
2018-02-17T11:51:46.755Z,-0.45
2018-02-17T11:52:56.487Z,-0.48
2018-02-17T11:54:06.220Z,-0.42
2018-02-17T11:55:15.952Z,-0.33
2018-02-17T11:56:25.142Z,-0.48
2018-02-17T11:57:35.140Z,-0.53
2018-02-17T11:58:45.175Z,-0.66
2018-02-17T11:59:54.108Z,-0.67
2018-02-17T12:01:03.567Z,-0.6
2018-02-17T12:02:12.763Z,-0.57
2018-02-17T12:03:21.707Z,-0.56
2018-02-17T12:04:31.303Z,-0.53
2018-02-17T12:05:41.036Z,-0.48
2018-02-17T12:06:50.281Z,-0.54
2018-02-17T12:07:59.207Z,-0.48
2018-02-17T12:09:08.138Z,-0.49
2018-02-17T12:10:17.337Z,-0.53
2018-02-17T12:11:26.800Z,-0.51
2018-02-17T12:12:35.996Z,-0.54
2018-02-17T12:13:45.725Z,-0.59
2018-02-17T12:14:54.654Z,-0.62
2018-02-17T12:16:04.654Z,-0.49
2018-02-17T12:17:14.114Z,-0.57
2018-02-17T12:18:23.572Z,-0.44
2018-02-17T12:19:33.039Z,-0.39
2018-02-17T12:20:42.237Z,-0.31
2018-02-17T12:21:51.425Z,-0.2
2018-02-17T12:23:00.885Z,-0.18
2018-02-17T12:24:10.614Z,-0.18
2018-02-17T12:25:20.343Z,-0.15
2018-02-17T12:26:30.084Z,-0.05
2018-02-17T12:27:39.813Z,-0.02
2018-02-17T12:28:49.815Z,0.08
2018-02-17T12:29:59.276Z,0.13
2018-02-17T12:31:09.004Z,0.23
2018-02-17T12:32:19.008Z,0.23
2018-02-17T12:33:29.008Z,0.15
2018-02-17T12:34:38.471Z,0.09
2018-02-17T12:35:48.467Z,0.02
2018-02-17T12:36:57.929Z,0.08
2018-02-17T12:38:07.927Z,0.02
2018-02-17T12:39:17.384Z,-0.05
2018-02-17T12:40:27.372Z,-0.17
2018-02-17T12:41:37.102Z,-0.18
2018-02-17T12:42:47.109Z,-0.12
2018-02-17T12:43:57.108Z,-0.02
2018-02-17T12:45:06.931Z,-0.06
2018-02-17T12:46:16.126Z,-0.06
2018-02-17T12:47:26.122Z,-0.03
2018-02-17T12:48:35.853Z,0
2018-02-17T12:49:45.849Z,-0.05
2018-02-17T12:50:55.691Z,-0.09
2018-02-17T12:52:05.495Z,-0.17
2018-02-17T12:53:14.957Z,-0.21
2018-02-17T12:54:25.002Z,-0.28
2018-02-17T12:55:35.007Z,-0.35
2018-02-17T12:56:45.003Z,-0.26
2018-02-17T12:57:54.996Z,-0.31
2018-02-17T12:59:04.772Z,-0.38
2018-02-17T13:00:14.233Z,-0.38
2018-02-17T13:01:23.961Z,-0.39
2018-02-17T13:02:33.956Z,-0.26
2018-02-17T13:03:43.964Z,-0.26
2018-02-17T13:04:53.691Z,-0.18
2018-02-17T13:06:03.687Z,-0.41
2018-02-17T13:07:13.690Z,-0.59
2018-02-17T13:08:23.684Z,-0.8
2018-02-17T13:09:33.148Z,-0.99
2018-02-17T13:10:43.149Z,-1.17
2018-02-17T13:11:52.876Z,-1.25
2018-02-17T13:13:02.608Z,-1.38
2018-02-17T13:14:12.336Z,-1.4
2018-02-17T13:15:22.072Z,-1.38
2018-02-17T13:16:31.803Z,-1.29
2018-02-17T13:17:41.807Z,-1.12
2018-02-17T13:18:51.538Z,-1.14
2018-02-17T13:20:01.535Z,-1.07
2018-02-17T13:21:11.530Z,-1.04
2018-02-17T13:22:21.259Z,-0.97
2018-02-17T13:23:31.257Z,-0.85
2018-02-17T13:24:41.261Z,-0.75
2018-02-17T13:25:51.262Z,-0.74
2018-02-17T13:27:01.255Z,-0.75
2018-02-17T13:28:10.985Z,-0.94
2018-02-17T13:29:20.992Z,-0.94
2018-02-17T13:30:30.996Z,-1.01
2018-02-17T13:31:41.007Z,-1.15
2018-02-17T13:32:50.739Z,-1.17
2018-02-17T13:34:00.753Z,-1.14
2018-02-17T13:35:09.952Z,-1.27
2018-02-17T13:36:19.686Z,-1.35
2018-02-17T13:37:29.685Z,-1.35
2018-02-17T13:38:39.427Z,-1.39
2018-02-17T13:39:49.427Z,-1.4
2018-02-17T13:40:59.419Z,-1.43
2018-02-17T13:42:09.147Z,-1.42
2018-02-17T13:43:18.611Z,-1.3
2018-02-17T13:44:28.345Z,-1.35
2018-02-17T13:45:38.180Z,-1.24
2018-02-17T13:46:48.185Z,-1.21
2018-02-17T13:47:57.932Z,-1.22
2018-02-17T13:49:07.402Z,-1.19
2018-02-17T13:50:17.131Z,-1.19
2018-02-17T13:51:26.858Z,-1.14
2018-02-17T13:52:36.855Z,-1.33
2018-02-17T13:53:46.865Z,-1.3
2018-02-17T13:54:56.590Z,-1.3
2018-02-17T13:56:06.589Z,-1.4
2018-02-17T13:57:16.057Z,-1.56
2018-02-17T13:58:25.526Z,-1.61
2018-02-17T13:59:35.527Z,-1.72
2018-02-17T14:00:45.255Z,-1.84
2018-02-17T14:01:55.339Z,-1.96
2018-02-17T14:03:04.901Z,-2.05
2018-02-17T14:04:14.636Z,-2.02
2018-02-17T14:05:24.373Z,-1.97
2018-02-17T14:06:33.848Z,-1.9
2018-02-17T14:07:43.849Z,-1.93
2018-02-17T14:08:53.851Z,-1.84
2018-02-17T14:10:03.347Z,-1.74
2018-02-17T14:11:12.823Z,-1.69
2018-02-17T14:12:22.582Z,-1.64
2018-02-17T14:13:32.572Z,-1.56
2018-02-17T14:14:42.352Z,-1.54
2018-02-17T14:15:52.182Z,-1.54
2018-02-17T14:17:02.186Z,-1.46
2018-02-17T14:18:11.920Z,-1.43
2018-02-17T14:19:21.118Z,-1.39
2018-02-17T14:20:31.156Z,-1.46
2018-02-17T14:21:41.160Z,-1.46
2018-02-17T14:22:51.165Z,-1.4
2018-02-17T14:24:01.164Z,-1.4
2018-02-17T14:25:11.196Z,-1.46
2018-02-17T14:26:20.935Z,-1.36
2018-02-17T14:27:30.667Z,-1.45
2018-02-17T14:28:40.663Z,-1.43
2018-02-17T14:29:50.661Z,-1.42
2018-02-17T14:31:00.396Z,-1.56
2018-02-17T14:32:10.177Z,-1.5
2018-02-17T14:33:19.904Z,-1.45
2018-02-17T14:34:29.893Z,-1.46
2018-02-17T14:35:39.970Z,-1.5
2018-02-17T14:36:49.964Z,-1.53
2018-02-17T14:37:59.693Z,-1.71
2018-02-17T14:39:09.685Z,-1.69
2018-02-17T14:40:19.678Z,-1.69
2018-02-17T14:41:29.407Z,-1.63
2018-02-17T14:42:39.132Z,-1.61
2018-02-17T14:43:49.131Z,-1.63
2018-02-17T14:44:59.171Z,-1.57
2018-02-17T14:46:08.098Z,-1.6
2018-02-17T14:47:18.098Z,-1.6
2018-02-17T14:48:28.091Z,-1.64
2018-02-17T14:49:38.087Z,-1.66
2018-02-17T14:50:48.081Z,-1.66
2018-02-17T14:51:58.077Z,-1.63
2018-02-17T14:53:07.536Z,-1.66
2018-02-17T14:54:17.525Z,-1.79
2018-02-17T14:55:27.515Z,-1.81
2018-02-17T14:56:37.266Z,-1.89
2018-02-17T14:57:47.262Z,-1.89
2018-02-17T14:58:56.991Z,-1.97
2018-02-17T15:00:06.990Z,-1.9
2018-02-17T15:01:16.989Z,-2.02
2018-02-17T15:02:26.976Z,-2.18
2018-02-17T15:03:36.973Z,-2.25
2018-02-17T15:04:46.972Z,-2.23